sensor_id;sensor_type;location;lat;lon;timestamp;P1;durP1;ratioP1;P2;durP2;ratioP2
34872;SDS011;21084;51.098;14.506;2022-09-09T00:01:58;8.55;;;4.28;;
34872;SDS011;21084;51.098;14.506;2022-09-09T00:04:30;5.10;;;3.58;;
34872;SDS011;21084;51.098;14.506;2022-09-09T00:07:01;6.57;;;3.72;;
34872;SDS011;21084;51.098;14.506;2022-09-09T00:09:35;14.07;;;3.90;;
34872;SDS011;21084;51.098;14.506;2022-09-09T00:12:12;4.05;;;3.50;;
34872;SDS011;21084;51.098;14.506;2022-09-09T00:14:49;7.03;;;4.40;;
34872;SDS011;21084;51.098;14.506;2022-09-09T00:17:26;7.68;;;4.72;;
34872;SDS011;21084;51.098;14.506;2022-09-09T00:20:03;4.47;;;3.72;;
34872;SDS011;21084;51.098;14.506;2022-09-09T00:22:38;8.13;;;3.65;;
34872;SDS011;21084;51.098;14.506;2022-09-09T00:25:21;5.47;;;3.70;;
34872;SDS011;21084;51.098;14.506;2022-09-09T00:27:55;5.32;;;3.83;;
34872;SDS011;21084;51.098;14.506;2022-09-09T00:30:26;8.95;;;4.13;;
34872;SDS011;21084;51.098;14.506;2022-09-09T00:32:58;7.85;;;4.10;;
34872;SDS011;21084;51.098;14.506;2022-09-09T00:35:30;4.65;;;3.55;;
34872;SDS011;21084;51.098;14.506;2022-09-09T00:38:04;5.78;;;3.85;;
34872;SDS011;21084;51.098;14.506;2022-09-09T00:40:41;8.07;;;3.20;;
34872;SDS011;21084;51.098;14.506;2022-09-09T00:43:22;8.60;;;3.53;;
34872;SDS011;21084;51.098;14.506;2022-09-09T00:45:59;5.75;;;3.70;;
34872;SDS011;21084;51.098;14.506;2022-09-09T00:48:44;9.07;;;3.30;;
34872;SDS011;21084;51.098;14.506;2022-09-09T00:51:22;6.68;;;3.50;;
34872;SDS011;21084;51.098;14.506;2022-09-09T00:56:47;7.90;;;3.75;;
34872;SDS011;21084;51.098;14.506;2022-09-09T00:59:36;10.02;;;4.20;;
34872;SDS011;21084;51.098;14.506;2022-09-09T01:02:16;4.97;;;3.72;;
34872;SDS011;21084;51.098;14.506;2022-09-09T01:04:52;5.45;;;4.07;;
34872;SDS011;21084;51.098;14.506;2022-09-09T01:07:21;10.70;;;4.50;;
34872;SDS011;21084;51.098;14.506;2022-09-09T01:09:54;6.63;;;4.07;;
34872;SDS011;21084;51.098;14.506;2022-09-09T01:12:25;5.82;;;4.40;;
34872;SDS011;21084;51.098;14.506;2022-09-09T01:15:01;18.50;;;4.90;;
34872;SDS011;21084;51.098;14.506;2022-09-09T01:17:39;12.30;;;4.35;;
34872;SDS011;21084;51.098;14.506;2022-09-09T01:20:17;6.95;;;4.00;;
34872;SDS011;21084;51.098;14.506;2022-09-09T01:22:53;7.75;;;3.78;;
34872;SDS011;21084;51.098;14.506;2022-09-09T01:26:02;5.18;;;3.90;;
34872;SDS011;21084;51.098;14.506;2022-09-09T01:28:39;7.85;;;4.05;;
34872;SDS011;21084;51.098;14.506;2022-09-09T01:31:11;5.00;;;3.58;;
34872;SDS011;21084;51.098;14.506;2022-09-09T01:33:43;5.75;;;3.88;;
34872;SDS011;21084;51.098;14.506;2022-09-09T01:36:12;5.10;;;3.42;;
34872;SDS011;21084;51.098;14.506;2022-09-09T01:38:45;4.53;;;3.28;;
34872;SDS011;21084;51.098;14.506;2022-09-09T01:41:16;4.20;;;3.80;;
34872;SDS011;21084;51.098;14.506;2022-09-09T01:43:44;4.80;;;3.70;;
34872;SDS011;21084;51.098;14.506;2022-09-09T01:46:12;5.22;;;3.60;;
34872;SDS011;21084;51.098;14.506;2022-09-09T01:48:41;4.70;;;3.50;;
34872;SDS011;21084;51.098;14.506;2022-09-09T01:51:10;4.65;;;3.55;;
34872;SDS011;21084;51.098;14.506;2022-09-09T01:53:40;6.75;;;3.70;;
34872;SDS011;21084;51.098;14.506;2022-09-09T01:56:13;8.02;;;3.42;;
34872;SDS011;21084;51.098;14.506;2022-09-09T01:58:59;4.93;;;3.40;;
34872;SDS011;21084;51.098;14.506;2022-09-09T02:01:38;10.27;;;3.58;;
34872;SDS011;21084;51.098;14.506;2022-09-09T02:04:23;7.65;;;3.58;;
34872;SDS011;21084;51.098;14.506;2022-09-09T02:07:03;5.63;;;3.25;;
34872;SDS011;21084;51.098;14.506;2022-09-09T02:09:41;4.40;;;3.30;;
34872;SDS011;21084;51.098;14.506;2022-09-09T02:12:17;9.75;;;3.58;;
34872;SDS011;21084;51.098;14.506;2022-09-09T02:14:49;6.88;;;3.55;;
34872;SDS011;21084;51.098;14.506;2022-09-09T02:17:25;3.72;;;3.33;;
34872;SDS011;21084;51.098;14.506;2022-09-09T02:19:59;4.60;;;3.28;;
34872;SDS011;21084;51.098;14.506;2022-09-09T02:22:32;4.55;;;2.90;;
34872;SDS011;21084;51.098;14.506;2022-09-09T02:27:34;14.63;;;3.30;;
34872;SDS011;21084;51.098;14.506;2022-09-09T02:30:04;3.95;;;3.20;;
34872;SDS011;21084;51.098;14.506;2022-09-09T02:32:36;8.00;;;3.42;;
34872;SDS011;21084;51.098;14.506;2022-09-09T02:35:09;6.10;;;3.38;;
34872;SDS011;21084;51.098;14.506;2022-09-09T02:37:42;4.53;;;3.35;;
34872;SDS011;21084;51.098;14.506;2022-09-09T02:40:13;6.57;;;3.45;;
34872;SDS011;21084;51.098;14.506;2022-09-09T02:45:14;4.43;;;3.42;;
34872;SDS011;21084;51.098;14.506;2022-09-09T02:47:47;6.15;;;3.65;;
34872;SDS011;21084;51.098;14.506;2022-09-09T02:50:22;5.57;;;4.00;;
34872;SDS011;21084;51.098;14.506;2022-09-09T02:52:58;5.32;;;3.58;;
34872;SDS011;21084;51.098;14.506;2022-09-09T02:55:37;8.43;;;4.20;;
34872;SDS011;21084;51.098;14.506;2022-09-09T02:58:10;7.63;;;3.83;;
34872;SDS011;21084;51.098;14.506;2022-09-09T03:00:43;7.57;;;4.00;;
34872;SDS011;21084;51.098;14.506;2022-09-09T03:03:13;6.60;;;3.58;;
34872;SDS011;21084;51.098;14.506;2022-09-09T03:05:44;3.78;;;3.22;;
34872;SDS011;21084;51.098;14.506;2022-09-09T03:08:12;4.03;;;3.50;;
34872;SDS011;21084;51.098;14.506;2022-09-09T03:10:42;5.50;;;3.45;;
34872;SDS011;21084;51.098;14.506;2022-09-09T03:13:12;3.75;;;3.30;;
34872;SDS011;21084;51.098;14.506;2022-09-09T03:15:43;6.82;;;3.88;;
34872;SDS011;21084;51.098;14.506;2022-09-09T03:18:11;5.18;;;3.42;;
34872;SDS011;21084;51.098;14.506;2022-09-09T03:20:39;5.63;;;3.70;;
34872;SDS011;21084;51.098;14.506;2022-09-09T03:23:09;8.88;;;4.05;;
34872;SDS011;21084;51.098;14.506;2022-09-09T03:25:45;5.13;;;3.92;;
34872;SDS011;21084;51.098;14.506;2022-09-09T03:28:15;5.72;;;4.03;;
34872;SDS011;21084;51.098;14.506;2022-09-09T03:30:44;5.60;;;3.58;;
34872;SDS011;21084;51.098;14.506;2022-09-09T03:33:12;4.50;;;3.50;;
34872;SDS011;21084;51.098;14.506;2022-09-09T03:38:14;7.07;;;3.83;;
34872;SDS011;21084;51.098;14.506;2022-09-09T03:40:48;5.18;;;3.78;;
34872;SDS011;21084;51.098;14.506;2022-09-09T03:43:25;7.18;;;4.03;;
34872;SDS011;21084;51.098;14.506;2022-09-09T03:45:54;9.13;;;4.30;;
34872;SDS011;21084;51.098;14.506;2022-09-09T03:48:23;7.38;;;4.03;;
34872;SDS011;21084;51.098;14.506;2022-09-09T03:50:54;7.88;;;5.13;;
34872;SDS011;21084;51.098;14.506;2022-09-09T03:55:52;8.07;;;4.25;;
34872;SDS011;21084;51.098;14.506;2022-09-09T03:58:22;6.13;;;4.50;;
34872;SDS011;21084;51.098;14.506;2022-09-09T04:00:53;10.27;;;4.60;;
34872;SDS011;21084;51.098;14.506;2022-09-09T04:05:54;9.13;;;4.40;;
34872;SDS011;21084;51.098;14.506;2022-09-09T04:08:24;6.60;;;4.20;;
34872;SDS011;21084;51.098;14.506;2022-09-09T04:10:53;6.45;;;4.68;;
34872;SDS011;21084;51.098;14.506;2022-09-09T04:13:26;7.97;;;4.75;;
34872;SDS011;21084;51.098;14.506;2022-09-09T04:15:57;5.10;;;4.22;;
34872;SDS011;21084;51.098;14.506;2022-09-09T04:18:27;7.15;;;4.53;;
34872;SDS011;21084;51.098;14.506;2022-09-09T04:20:55;6.95;;;4.38;;
34872;SDS011;21084;51.098;14.506;2022-09-09T04:23:24;10.60;;;4.07;;
34872;SDS011;21084;51.098;14.506;2022-09-09T04:25:56;9.25;;;5.65;;
34872;SDS011;21084;51.098;14.506;2022-09-09T04:28:27;8.48;;;4.95;;
34872;SDS011;21084;51.098;14.506;2022-09-09T04:31:03;8.93;;;5.00;;
34872;SDS011;21084;51.098;14.506;2022-09-09T04:33:33;9.95;;;4.60;;
34872;SDS011;21084;51.098;14.506;2022-09-09T04:36:06;7.47;;;5.15;;
34872;SDS011;21084;51.098;14.506;2022-09-09T04:38:37;8.50;;;4.97;;
34872;SDS011;21084;51.098;14.506;2022-09-09T04:41:06;14.93;;;5.57;;
34872;SDS011;21084;51.098;14.506;2022-09-09T04:43:39;6.97;;;5.63;;
34872;SDS011;21084;51.098;14.506;2022-09-09T04:46:10;10.32;;;5.45;;
34872;SDS011;21084;51.098;14.506;2022-09-09T04:48:41;15.18;;;6.35;;
34872;SDS011;21084;51.098;14.506;2022-09-09T04:51:12;11.55;;;5.22;;
34872;SDS011;21084;51.098;14.506;2022-09-09T04:53:44;8.32;;;5.50;;
34872;SDS011;21084;51.098;14.506;2022-09-09T04:56:15;7.68;;;5.45;;
34872;SDS011;21084;51.098;14.506;2022-09-09T04:58:48;7.72;;;5.78;;
34872;SDS011;21084;51.098;14.506;2022-09-09T05:01:18;10.15;;;5.80;;
34872;SDS011;21084;51.098;14.506;2022-09-09T05:03:55;9.75;;;5.38;;
34872;SDS011;21084;51.098;14.506;2022-09-09T05:06:24;11.18;;;6.10;;
34872;SDS011;21084;51.098;14.506;2022-09-09T05:08:53;9.38;;;5.80;;
34872;SDS011;21084;51.098;14.506;2022-09-09T05:11:22;10.30;;;5.88;;
34872;SDS011;21084;51.098;14.506;2022-09-09T05:13:53;15.95;;;6.38;;
34872;SDS011;21084;51.098;14.506;2022-09-09T05:16:25;15.23;;;6.20;;
34872;SDS011;21084;51.098;14.506;2022-09-09T05:18:53;11.57;;;6.28;;
34872;SDS011;21084;51.098;14.506;2022-09-09T05:21:23;10.13;;;5.80;;
34872;SDS011;21084;51.098;14.506;2022-09-09T05:23:53;8.23;;;5.20;;
34872;SDS011;21084;51.098;14.506;2022-09-09T05:26:22;10.55;;;5.18;;
34872;SDS011;21084;51.098;14.506;2022-09-09T05:28:53;9.18;;;4.93;;
34872;SDS011;21084;51.098;14.506;2022-09-09T05:31:22;8.45;;;4.93;;
34872;SDS011;21084;51.098;14.506;2022-09-09T05:34:02;12.00;;;5.60;;
34872;SDS011;21084;51.098;14.506;2022-09-09T05:36:31;11.88;;;5.05;;
34872;SDS011;21084;51.098;14.506;2022-09-09T05:39:04;12.95;;;5.00;;
34872;SDS011;21084;51.098;14.506;2022-09-09T05:41:32;16.00;;;4.85;;
34872;SDS011;21084;51.098;14.506;2022-09-09T05:44:03;7.50;;;4.63;;
34872;SDS011;21084;51.098;14.506;2022-09-09T05:46:32;8.30;;;4.80;;
34872;SDS011;21084;51.098;14.506;2022-09-09T05:49:01;12.85;;;4.60;;
34872;SDS011;21084;51.098;14.506;2022-09-09T05:51:31;11.40;;;4.60;;
34872;SDS011;21084;51.098;14.506;2022-09-09T05:54:03;9.85;;;4.18;;
34872;SDS011;21084;51.098;14.506;2022-09-09T05:56:34;6.75;;;4.35;;
34872;SDS011;21084;51.098;14.506;2022-09-09T05:59:06;6.07;;;4.47;;
34872;SDS011;21084;51.098;14.506;2022-09-09T06:01:35;8.80;;;3.67;;
34872;SDS011;21084;51.098;14.506;2022-09-09T06:04:07;9.40;;;3.60;;
34872;SDS011;21084;51.098;14.506;2022-09-09T06:06:36;4.70;;;3.22;;
34872;SDS011;21084;51.098;14.506;2022-09-09T06:09:06;7.85;;;3.13;;
34872;SDS011;21084;51.098;14.506;2022-09-09T06:11:37;2.90;;;1.90;;
34872;SDS011;21084;51.098;14.506;2022-09-09T06:14:08;6.55;;;2.35;;
34872;SDS011;21084;51.098;14.506;2022-09-09T06:16:47;5.13;;;2.15;;
34872;SDS011;21084;51.098;14.506;2022-09-09T06:19:15;3.23;;;2.60;;
34872;SDS011;21084;51.098;14.506;2022-09-09T06:21:47;3.83;;;2.10;;
34872;SDS011;21084;51.098;14.506;2022-09-09T06:24:16;5.40;;;2.03;;
34872;SDS011;21084;51.098;14.506;2022-09-09T06:26:53;4.82;;;2.30;;
34872;SDS011;21084;51.098;14.506;2022-09-09T06:29:23;10.52;;;2.20;;
34872;SDS011;21084;51.098;14.506;2022-09-09T06:31:51;2.72;;;1.85;;
34872;SDS011;21084;51.098;14.506;2022-09-09T06:34:20;5.68;;;1.50;;
34872;SDS011;21084;51.098;14.506;2022-09-09T06:36:49;2.80;;;1.60;;
34872;SDS011;21084;51.098;14.506;2022-09-09T06:39:18;2.60;;;1.45;;
34872;SDS011;21084;51.098;14.506;2022-09-09T06:41:47;2.63;;;1.73;;
34872;SDS011;21084;51.098;14.506;2022-09-09T06:44:23;3.33;;;1.83;;
34872;SDS011;21084;51.098;14.506;2022-09-09T06:46:56;4.13;;;1.75;;
34872;SDS011;21084;51.098;14.506;2022-09-09T06:49:24;2.50;;;1.70;;
34872;SDS011;21084;51.098;14.506;2022-09-09T06:51:52;3.90;;;1.70;;
34872;SDS011;21084;51.098;14.506;2022-09-09T06:54:20;4.47;;;1.60;;
34872;SDS011;21084;51.098;14.506;2022-09-09T06:56:50;4.37;;;1.70;;
34872;SDS011;21084;51.098;14.506;2022-09-09T06:59:18;3.72;;;1.45;;
34872;SDS011;21084;51.098;14.506;2022-09-09T07:01:47;2.20;;;1.40;;
34872;SDS011;21084;51.098;14.506;2022-09-09T07:04:21;4.18;;;1.73;;
34872;SDS011;21084;51.098;14.506;2022-09-09T07:06:49;3.35;;;1.48;;
34872;SDS011;21084;51.098;14.506;2022-09-09T07:09:18;2.97;;;1.58;;
34872;SDS011;21084;51.098;14.506;2022-09-09T07:11:48;6.45;;;1.95;;
34872;SDS011;21084;51.098;14.506;2022-09-09T07:14:19;2.20;;;1.50;;
34872;SDS011;21084;51.098;14.506;2022-09-09T07:16:50;3.95;;;1.58;;
34872;SDS011;21084;51.098;14.506;2022-09-09T07:19:24;7.47;;;1.50;;
34872;SDS011;21084;51.098;14.506;2022-09-09T07:21:52;3.60;;;1.50;;
34872;SDS011;21084;51.098;14.506;2022-09-09T07:24:21;4.70;;;1.43;;
34872;SDS011;21084;51.098;14.506;2022-09-09T07:26:49;3.92;;;1.73;;
34872;SDS011;21084;51.098;14.506;2022-09-09T07:29:18;2.90;;;1.40;;
34872;SDS011;21084;51.098;14.506;2022-09-09T07:31:47;4.78;;;1.50;;
34872;SDS011;21084;51.098;14.506;2022-09-09T07:34:17;5.95;;;1.88;;
34872;SDS011;21084;51.098;14.506;2022-09-09T07:36:45;2.72;;;1.58;;
34872;SDS011;21084;51.098;14.506;2022-09-09T07:39:16;2.53;;;1.50;;
34872;SDS011;21084;51.098;14.506;2022-09-09T07:41:44;6.50;;;1.40;;
34872;SDS011;21084;51.098;14.506;2022-09-09T07:44:14;2.55;;;1.33;;
34872;SDS011;21084;51.098;14.506;2022-09-09T07:46:43;5.07;;;1.25;;
34872;SDS011;21084;51.098;14.506;2022-09-09T07:49:13;2.65;;;1.10;;
34872;SDS011;21084;51.098;14.506;2022-09-09T07:51:42;7.18;;;1.50;;
34872;SDS011;21084;51.098;14.506;2022-09-09T07:54:13;3.33;;;1.08;;
34872;SDS011;21084;51.098;14.506;2022-09-09T07:56:42;4.90;;;1.10;;
34872;SDS011;21084;51.098;14.506;2022-09-09T07:59:10;3.92;;;1.33;;
34872;SDS011;21084;51.098;14.506;2022-09-09T08:01:39;4.18;;;1.30;;
34872;SDS011;21084;51.098;14.506;2022-09-09T08:04:10;4.55;;;1.33;;
34872;SDS011;21084;51.098;14.506;2022-09-09T08:06:43;3.25;;;1.27;;
34872;SDS011;21084;51.098;14.506;2022-09-09T08:09:12;5.72;;;1.30;;
34872;SDS011;21084;51.098;14.506;2022-09-09T08:11:41;2.05;;;1.17;;
34872;SDS011;21084;51.098;14.506;2022-09-09T08:14:10;5.35;;;1.10;;
34872;SDS011;21084;51.098;14.506;2022-09-09T08:16:40;6.40;;;1.27;;
34872;SDS011;21084;51.098;14.506;2022-09-09T08:19:09;2.55;;;1.10;;
34872;SDS011;21084;51.098;14.506;2022-09-09T08:21:38;2.78;;;1.05;;
34872;SDS011;21084;51.098;14.506;2022-09-09T08:24:08;5.00;;;1.33;;
34872;SDS011;21084;51.098;14.506;2022-09-09T08:26:38;6.18;;;1.10;;
34872;SDS011;21084;51.098;14.506;2022-09-09T08:29:08;3.38;;;1.20;;
34872;SDS011;21084;51.098;14.506;2022-09-09T08:31:38;3.00;;;1.02;;
34872;SDS011;21084;51.098;14.506;2022-09-09T08:34:08;5.85;;;1.48;;
34872;SDS011;21084;51.098;14.506;2022-09-09T08:36:37;4.60;;;1.30;;
34872;SDS011;21084;51.098;14.506;2022-09-09T08:39:10;2.08;;;1.27;;
34872;SDS011;21084;51.098;14.506;2022-09-09T08:41:42;6.03;;;1.33;;
34872;SDS011;21084;51.098;14.506;2022-09-09T08:44:31;5.28;;;1.23;;
34872;SDS011;21084;51.098;14.506;2022-09-09T08:47:16;1.65;;;1.00;;
34872;SDS011;21084;51.098;14.506;2022-09-09T08:49:53;2.33;;;0.93;;
34872;SDS011;21084;51.098;14.506;2022-09-09T08:52:32;2.65;;;1.23;;
34872;SDS011;21084;51.098;14.506;2022-09-09T08:55:14;3.40;;;1.08;;
34872;SDS011;21084;51.098;14.506;2022-09-09T08:57:49;3.17;;;1.23;;
34872;SDS011;21084;51.098;14.506;2022-09-09T09:00:20;2.20;;;1.23;;
34872;SDS011;21084;51.098;14.506;2022-09-09T09:05:25;2.35;;;1.08;;
34872;SDS011;21084;51.098;14.506;2022-09-09T09:08:01;3.85;;;0.80;;
34872;SDS011;21084;51.098;14.506;2022-09-09T09:10:39;5.03;;;1.10;;
34872;SDS011;21084;51.098;14.506;2022-09-09T09:13:18;3.85;;;1.20;;
34872;SDS011;21084;51.098;14.506;2022-09-09T09:15:50;3.55;;;0.98;;
34872;SDS011;21084;51.098;14.506;2022-09-09T09:18:23;3.55;;;1.20;;
34872;SDS011;21084;51.098;14.506;2022-09-09T09:20:54;3.60;;;1.10;;
34872;SDS011;21084;51.098;14.506;2022-09-09T09:23:33;2.78;;;1.23;;
34872;SDS011;21084;51.098;14.506;2022-09-09T09:26:07;4.88;;;1.20;;
34872;SDS011;21084;51.098;14.506;2022-09-09T09:28:37;2.25;;;1.08;;
34872;SDS011;21084;51.098;14.506;2022-09-09T09:31:08;4.97;;;1.27;;
34872;SDS011;21084;51.098;14.506;2022-09-09T09:33:41;2.97;;;1.00;;
34872;SDS011;21084;51.098;14.506;2022-09-09T09:36:15;4.60;;;0.93;;
34872;SDS011;21084;51.098;14.506;2022-09-09T09:38:53;4.15;;;0.90;;
34872;SDS011;21084;51.098;14.506;2022-09-09T09:44:25;2.75;;;1.00;;
34872;SDS011;21084;51.098;14.506;2022-09-09T09:47:05;3.60;;;1.10;;
34872;SDS011;21084;51.098;14.506;2022-09-09T09:49:34;4.30;;;1.10;;
34872;SDS011;21084;51.098;14.506;2022-09-09T09:52:02;2.53;;;1.15;;
34872;SDS011;21084;51.098;14.506;2022-09-09T09:54:32;2.13;;;0.90;;
34872;SDS011;21084;51.098;14.506;2022-09-09T09:57:09;5.68;;;1.42;;
34872;SDS011;21084;51.098;14.506;2022-09-09T09:59:39;3.30;;;1.63;;
34872;SDS011;21084;51.098;14.506;2022-09-09T10:02:14;4.32;;;1.88;;
34872;SDS011;21084;51.098;14.506;2022-09-09T10:04:44;6.30;;;1.50;;
34872;SDS011;21084;51.098;14.506;2022-09-09T10:07:17;4.47;;;2.00;;
34872;SDS011;21084;51.098;14.506;2022-09-09T10:09:47;4.57;;;1.70;;
34872;SDS011;21084;51.098;14.506;2022-09-09T10:12:23;4.80;;;1.77;;
34872;SDS011;21084;51.098;14.506;2022-09-09T10:18:03;4.78;;;1.70;;
34872;SDS011;21084;51.098;14.506;2022-09-09T10:20:44;3.35;;;1.30;;
34872;SDS011;21084;51.098;14.506;2022-09-09T10:23:23;1.75;;;0.90;;
34872;SDS011;21084;51.098;14.506;2022-09-09T10:26:15;2.00;;;0.85;;
34872;SDS011;21084;51.098;14.506;2022-09-09T10:31:53;2.85;;;1.27;;
34872;SDS011;21084;51.098;14.506;2022-09-09T10:34:35;4.38;;;1.70;;
34872;SDS011;21084;51.098;14.506;2022-09-09T10:37:26;3.15;;;1.50;;
34872;SDS011;21084;51.098;14.506;2022-09-09T10:40:08;2.97;;;1.65;;
34872;SDS011;21084;51.098;14.506;2022-09-09T10:42:52;5.38;;;1.58;;
34872;SDS011;21084;51.098;14.506;2022-09-09T10:45:27;5.63;;;1.90;;
34872;SDS011;21084;51.098;14.506;2022-09-09T10:48:13;4.63;;;1.83;;
34872;SDS011;21084;51.098;14.506;2022-09-09T10:50:59;5.20;;;1.77;;
34872;SDS011;21084;51.098;14.506;2022-09-09T10:53:41;7.70;;;2.20;;
34872;SDS011;21084;51.098;14.506;2022-09-09T10:56:18;3.55;;;1.50;;
34872;SDS011;21084;51.098;14.506;2022-09-09T10:58:50;6.38;;;1.70;;
34872;SDS011;21084;51.098;14.506;2022-09-09T11:01:22;2.20;;;1.38;;
34872;SDS011;21084;51.098;14.506;2022-09-09T11:03:54;3.97;;;1.70;;
34872;SDS011;21084;51.098;14.506;2022-09-09T11:06:26;7.78;;;1.60;;
34872;SDS011;21084;51.098;14.506;2022-09-09T11:08:59;7.75;;;1.40;;
34872;SDS011;21084;51.098;14.506;2022-09-09T11:11:29;3.13;;;1.40;;
34872;SDS011;21084;51.098;14.506;2022-09-09T11:14:02;3.17;;;1.40;;
34872;SDS011;21084;51.098;14.506;2022-09-09T11:16:38;4.22;;;1.80;;
34872;SDS011;21084;51.098;14.506;2022-09-09T11:19:11;3.00;;;1.80;;
34872;SDS011;21084;51.098;14.506;2022-09-09T11:21:45;3.25;;;1.20;;
34872;SDS011;21084;51.098;14.506;2022-09-09T11:24:15;3.88;;;1.40;;
34872;SDS011;21084;51.098;14.506;2022-09-09T11:26:49;4.20;;;1.58;;
34872;SDS011;21084;51.098;14.506;2022-09-09T11:29:32;2.88;;;1.33;;
34872;SDS011;21084;51.098;14.506;2022-09-09T11:32:16;3.42;;;1.00;;
34872;SDS011;21084;51.098;14.506;2022-09-09T11:34:59;3.40;;;1.20;;
34872;SDS011;21084;51.098;14.506;2022-09-09T11:37:44;3.47;;;1.08;;
34872;SDS011;21084;51.098;14.506;2022-09-09T11:40:29;3.40;;;1.30;;
34872;SDS011;21084;51.098;14.506;2022-09-09T11:43:03;2.85;;;1.10;;
34872;SDS011;21084;51.098;14.506;2022-09-09T11:45:33;4.40;;;1.98;;
34872;SDS011;21084;51.098;14.506;2022-09-09T11:48:04;4.80;;;1.83;;
34872;SDS011;21084;51.098;14.506;2022-09-09T11:50:34;3.92;;;1.35;;
34872;SDS011;21084;51.098;14.506;2022-09-09T11:53:18;2.78;;;1.23;;
34872;SDS011;21084;51.098;14.506;2022-09-09T11:56:04;6.50;;;1.27;;
34872;SDS011;21084;51.098;14.506;2022-09-09T11:58:36;2.33;;;1.30;;
34872;SDS011;21084;51.098;14.506;2022-09-09T12:01:25;3.13;;;1.38;;
34872;SDS011;21084;51.098;14.506;2022-09-09T12:04:05;2.00;;;1.02;;
34872;SDS011;21084;51.098;14.506;2022-09-09T12:06:41;3.47;;;1.00;;
34872;SDS011;21084;51.098;14.506;2022-09-09T12:09:19;5.03;;;1.65;;
34872;SDS011;21084;51.098;14.506;2022-09-09T12:11:52;7.00;;;1.63;;
34872;SDS011;21084;51.098;14.506;2022-09-09T12:14:36;5.53;;;1.50;;
34872;SDS011;21084;51.098;14.506;2022-09-09T12:17:09;6.20;;;1.50;;
34872;SDS011;21084;51.098;14.506;2022-09-09T12:19:59;6.43;;;1.65;;
34872;SDS011;21084;51.098;14.506;2022-09-09T12:22:33;5.55;;;1.67;;
34872;SDS011;21084;51.098;14.506;2022-09-09T12:25:07;3.85;;;1.70;;
34872;SDS011;21084;51.098;14.506;2022-09-09T12:27:50;3.47;;;1.90;;
34872;SDS011;21084;51.098;14.506;2022-09-09T12:30:29;6.68;;;1.88;;
34872;SDS011;21084;51.098;14.506;2022-09-09T12:33:02;2.75;;;1.88;;
34872;SDS011;21084;51.098;14.506;2022-09-09T12:35:36;4.97;;;1.95;;
34872;SDS011;21084;51.098;14.506;2022-09-09T12:38:05;5.18;;;1.70;;
34872;SDS011;21084;51.098;14.506;2022-09-09T12:40:37;3.03;;;1.45;;
34872;SDS011;21084;51.098;14.506;2022-09-09T12:43:16;4.68;;;1.33;;
34872;SDS011;21084;51.098;14.506;2022-09-09T12:45:45;3.53;;;1.50;;
34872;SDS011;21084;51.098;14.506;2022-09-09T12:48:16;4.50;;;1.30;;
34872;SDS011;21084;51.098;14.506;2022-09-09T12:50:48;2.75;;;1.10;;
34872;SDS011;21084;51.098;14.506;2022-09-09T12:53:19;4.47;;;1.45;;
34872;SDS011;21084;51.098;14.506;2022-09-09T12:55:53;4.10;;;1.40;;
34872;SDS011;21084;51.098;14.506;2022-09-09T12:58:24;3.47;;;1.52;;
34872;SDS011;21084;51.098;14.506;2022-09-09T13:00:55;3.97;;;1.58;;
34872;SDS011;21084;51.098;14.506;2022-09-09T13:03:23;3.42;;;1.48;;
34872;SDS011;21084;51.098;14.506;2022-09-09T13:05:53;3.40;;;1.20;;
34872;SDS011;21084;51.098;14.506;2022-09-09T13:08:26;4.55;;;1.73;;
34872;SDS011;21084;51.098;14.506;2022-09-09T13:10:55;2.97;;;1.40;;
34872;SDS011;21084;51.098;14.506;2022-09-09T13:13:29;4.18;;;1.77;;
34872;SDS011;21084;51.098;14.506;2022-09-09T13:16:02;3.10;;;1.55;;
34872;SDS011;21084;51.098;14.506;2022-09-09T13:18:34;5.93;;;1.70;;
34872;SDS011;21084;51.098;14.506;2022-09-09T13:21:06;3.58;;;1.85;;
34872;SDS011;21084;51.098;14.506;2022-09-09T13:26:04;4.43;;;1.58;;
34872;SDS011;21084;51.098;14.506;2022-09-09T13:28:34;4.40;;;1.20;;
34872;SDS011;21084;51.098;14.506;2022-09-09T13:31:03;1.80;;;1.20;;
34872;SDS011;21084;51.098;14.506;2022-09-09T13:33:33;5.30;;;1.30;;
34872;SDS011;21084;51.098;14.506;2022-09-09T13:36:04;2.67;;;1.20;;
34872;SDS011;21084;51.098;14.506;2022-09-09T13:38:36;3.22;;;1.17;;
34872;SDS011;21084;51.098;14.506;2022-09-09T13:41:06;3.22;;;1.60;;
34872;SDS011;21084;51.098;14.506;2022-09-09T13:46:05;4.40;;;1.40;;
34872;SDS011;21084;51.098;14.506;2022-09-09T13:48:54;5.28;;;1.52;;
34872;SDS011;21084;51.098;14.506;2022-09-09T13:51:28;4.93;;;1.35;;
34872;SDS011;21084;51.098;14.506;2022-09-09T13:54:00;5.80;;;1.23;;
34872;SDS011;21084;51.098;14.506;2022-09-09T13:56:28;5.07;;;1.65;;
34872;SDS011;21084;51.098;14.506;2022-09-09T13:58:56;2.65;;;1.20;;
34872;SDS011;21084;51.098;14.506;2022-09-09T14:01:24;2.92;;;1.30;;
34872;SDS011;21084;51.098;14.506;2022-09-09T14:03:55;7.18;;;1.63;;
34872;SDS011;21084;51.098;14.506;2022-09-09T14:06:23;5.82;;;1.30;;
34872;SDS011;21084;51.098;14.506;2022-09-09T14:08:53;7.07;;;1.30;;
34872;SDS011;21084;51.098;14.506;2022-09-09T14:11:21;2.50;;;1.02;;
34872;SDS011;21084;51.098;14.506;2022-09-09T14:13:49;4.47;;;1.33;;
34872;SDS011;21084;51.098;14.506;2022-09-09T14:16:17;3.65;;;1.30;;
34872;SDS011;21084;51.098;14.506;2022-09-09T14:18:46;7.22;;;1.33;;
34872;SDS011;21084;51.098;14.506;2022-09-09T14:21:14;6.15;;;1.02;;
34872;SDS011;21084;51.098;14.506;2022-09-09T14:23:42;6.22;;;1.50;;
34872;SDS011;21084;51.098;14.506;2022-09-09T14:26:12;3.03;;;1.23;;
34872;SDS011;21084;51.098;14.506;2022-09-09T14:28:40;6.03;;;1.10;;
34872;SDS011;21084;51.098;14.506;2022-09-09T14:31:24;2.20;;;1.13;;
34872;SDS011;21084;51.098;14.506;2022-09-09T14:33:52;3.50;;;1.23;;
34872;SDS011;21084;51.098;14.506;2022-09-09T14:36:21;4.72;;;1.20;;
34872;SDS011;21084;51.098;14.506;2022-09-09T14:38:48;2.67;;;1.38;;
34872;SDS011;21084;51.098;14.506;2022-09-09T14:41:18;1.73;;;1.02;;
34872;SDS011;21084;51.098;14.506;2022-09-09T14:43:48;2.65;;;1.20;;
34872;SDS011;21084;51.098;14.506;2022-09-09T14:46:18;5.47;;;1.33;;
34872;SDS011;21084;51.098;14.506;2022-09-09T14:48:47;3.65;;;1.40;;
34872;SDS011;21084;51.098;14.506;2022-09-09T14:51:16;6.93;;;1.38;;
34872;SDS011;21084;51.098;14.506;2022-09-09T14:54:10;4.53;;;1.30;;
34872;SDS011;21084;51.098;14.506;2022-09-09T14:56:39;2.78;;;1.30;;
34872;SDS011;21084;51.098;14.506;2022-09-09T14:59:07;3.10;;;1.52;;
34872;SDS011;21084;51.098;14.506;2022-09-09T15:01:35;2.63;;;1.10;;
34872;SDS011;21084;51.098;14.506;2022-09-09T15:04:04;5.32;;;1.20;;
34872;SDS011;21084;51.098;14.506;2022-09-09T15:06:33;3.57;;;1.20;;
34872;SDS011;21084;51.098;14.506;2022-09-09T15:09:05;4.43;;;1.08;;
34872;SDS011;21084;51.098;14.506;2022-09-09T15:11:34;3.88;;;1.35;;
34872;SDS011;21084;51.098;14.506;2022-09-09T15:14:06;5.43;;;1.23;;
34872;SDS011;21084;51.098;14.506;2022-09-09T15:16:35;2.65;;;1.10;;
34872;SDS011;21084;51.098;14.506;2022-09-09T15:19:04;2.55;;;1.00;;
34872;SDS011;21084;51.098;14.506;2022-09-09T15:21:33;4.20;;;1.17;;
34872;SDS011;21084;51.098;14.506;2022-09-09T15:24:03;3.97;;;1.27;;
34872;SDS011;21084;51.098;14.506;2022-09-09T15:26:33;4.25;;;2.85;;
34872;SDS011;21084;51.098;14.506;2022-09-09T15:29:06;3.33;;;2.75;;
34872;SDS011;21084;51.098;14.506;2022-09-09T15:31:35;4.57;;;1.48;;
34872;SDS011;21084;51.098;14.506;2022-09-09T15:34:04;2.22;;;1.00;;
34872;SDS011;21084;51.098;14.506;2022-09-09T15:36:34;3.33;;;1.13;;
34872;SDS011;21084;51.098;14.506;2022-09-09T15:39:04;4.05;;;1.30;;